createdAt,value
2019-04-06T00:00:15.317Z,999.58
2019-04-06T00:01:15.352Z,999.58
2019-04-06T00:02:15.295Z,999.61
2019-04-06T00:03:15.288Z,999.58
2019-04-06T00:04:15.297Z,999.55
2019-04-06T00:05:15.269Z,999.54
2019-04-06T00:06:15.257Z,999.53
2019-04-06T00:07:15.246Z,999.50
2019-04-06T00:08:15.232Z,999.48
2019-04-06T00:09:15.224Z,999.49
2019-04-06T00:10:15.222Z,999.50
2019-04-06T00:11:15.214Z,999.45
2019-04-06T00:12:15.200Z,999.47
2019-04-06T00:13:15.185Z,999.51
2019-04-06T00:14:15.171Z,999.47
2019-04-06T00:15:15.170Z,999.45
2019-04-06T00:16:15.844Z,999.42
2019-04-06T00:17:15.144Z,999.46
2019-04-06T00:18:15.154Z,999.40
2019-04-06T00:19:15.189Z,999.39
2019-04-06T00:20:15.117Z,999.44
2019-04-06T00:21:15.109Z,999.41
2019-04-06T00:22:15.120Z,999.41
2019-04-06T00:23:15.089Z,999.40
2019-04-06T00:24:15.082Z,999.35
2019-04-06T00:25:15.068Z,999.32
2019-04-06T00:26:15.059Z,999.33
2019-04-06T00:27:15.053Z,999.35
2019-04-06T00:28:15.043Z,999.32
2019-04-06T00:29:15.033Z,999.31
2019-04-06T00:30:15.017Z,999.27
2019-04-06T00:31:15.012Z,999.26
2019-04-06T00:32:14.994Z,999.25
2019-04-06T00:33:14.987Z,999.24
2019-04-06T00:34:14.978Z,999.24
2019-04-06T00:35:14.977Z,999.22
2019-04-06T00:36:14.954Z,999.24
2019-04-06T00:37:14.947Z,999.23
2019-04-06T00:38:14.938Z,999.25
2019-04-06T00:39:14.925Z,999.27
2019-04-06T00:40:14.917Z,999.26
2019-04-06T00:41:14.910Z,999.24
2019-04-06T00:42:14.897Z,999.23
2019-04-06T00:43:14.901Z,999.21
2019-04-06T00:44:16.769Z,999.23
2019-04-06T00:45:14.875Z,999.22
2019-04-06T00:46:14.853Z,999.24
2019-04-06T00:47:14.842Z,999.21
2019-04-06T00:48:14.839Z,999.24
2019-04-06T00:49:14.830Z,999.22
2019-04-06T00:50:14.818Z,999.24
2019-04-06T00:51:14.805Z,999.21
2019-04-06T00:52:14.792Z,999.21
2019-04-06T00:53:14.786Z,999.22
2019-04-06T00:54:16.223Z,999.19
2019-04-06T00:55:14.772Z,999.19
2019-04-06T00:56:14.757Z,999.14
2019-04-06T00:57:14.844Z,999.17
2019-04-06T00:58:14.732Z,999.17
2019-04-06T00:59:14.724Z,999.16
2019-04-06T01:00:14.718Z,999.16
2019-04-06T01:01:14.722Z,999.17
2019-04-06T01:02:14.710Z,999.11
2019-04-06T01:03:14.681Z,999.06
2019-04-06T01:04:14.676Z,999.09
2019-04-06T01:05:14.659Z,999.11
2019-04-06T01:06:14.649Z,999.07
2019-04-06T01:07:14.636Z,999.03
2019-04-06T01:08:14.637Z,999.09
2019-04-06T01:09:14.647Z,999.12
2019-04-06T01:10:14.614Z,999.13
2019-04-06T01:11:14.605Z,999.07
2019-04-06T01:12:14.614Z,999.09
2019-04-06T01:13:14.587Z,999.08
2019-04-06T01:14:14.576Z,999.09
2019-04-06T01:15:14.571Z,999.10
2019-04-06T01:16:14.551Z,999.10
2019-04-06T01:17:14.544Z,999.09
2019-04-06T01:18:14.532Z,999.08
2019-04-06T01:19:14.528Z,999.07
2019-04-06T01:20:14.507Z,999.09
2019-04-06T01:21:14.513Z,999.12
2019-04-06T01:22:14.508Z,999.13
2019-04-06T01:23:14.484Z,999.13
2019-04-06T01:24:14.483Z,999.10
2019-04-06T01:25:14.470Z,999.12
2019-04-06T01:26:14.471Z,999.11
2019-04-06T01:27:14.440Z,999.14
2019-04-06T01:28:14.457Z,999.14
2019-04-06T01:29:14.430Z,999.13
2019-04-06T01:30:14.416Z,999.17
2019-04-06T01:31:14.408Z,999.18
2019-04-06T01:32:14.389Z,999.17
2019-04-06T01:33:14.389Z,999.18
2019-04-06T01:34:14.372Z,999.17
2019-04-06T01:35:14.373Z,999.15
2019-04-06T01:36:14.355Z,999.13
2019-04-06T01:37:14.346Z,999.12
2019-04-06T01:38:14.336Z,999.13
2019-04-06T01:39:14.321Z,999.12
2019-04-06T01:40:14.313Z,999.15
2019-04-06T01:41:14.306Z,999.15
2019-04-06T01:42:14.367Z,999.09
2019-04-06T01:43:14.295Z,999.14
2019-04-06T01:44:14.279Z,999.12
2019-04-06T01:45:14.264Z,999.09
2019-04-06T01:46:14.262Z,999.06
2019-04-06T01:47:14.240Z,999.06
2019-04-06T01:48:14.237Z,999.06
2019-04-06T01:49:14.226Z,999.06
2019-04-06T01:50:14.218Z,999.05
2019-04-06T01:51:14.208Z,999.08
2019-04-06T01:52:14.218Z,999.05
2019-04-06T01:53:14.201Z,999.09
2019-04-06T01:54:14.272Z,999.04
2019-04-06T01:55:14.167Z,999.12
2019-04-06T01:56:18.728Z,999.08
2019-04-06T01:57:14.144Z,999.07
2019-04-06T01:58:14.137Z,999.10
2019-04-06T01:59:14.139Z,999.13
2019-04-06T02:00:14.137Z,999.09
2019-04-06T02:01:14.113Z,999.13
2019-04-06T02:02:14.104Z,999.12
2019-04-06T02:03:14.086Z,999.10
2019-04-06T02:04:14.076Z,999.08
2019-04-06T02:05:14.091Z,999.12
2019-04-06T02:06:14.081Z,999.14
2019-04-06T02:07:14.049Z,999.11
2019-04-06T02:08:14.889Z,999.13
2019-04-06T02:09:14.024Z,999.12
2019-04-06T02:10:14.014Z,999.12
2019-04-06T02:11:14.006Z,999.06
2019-04-06T02:12:13.996Z,999.05
2019-04-06T02:13:13.992Z,999.05
2019-04-06T02:14:13.975Z,999.05
2019-04-06T02:15:13.961Z,999.12
2019-04-06T02:16:13.962Z,999.06
2019-04-06T02:17:13.955Z,999.05
2019-04-06T02:18:13.987Z,999.10
2019-04-06T02:19:13.958Z,999.08
2019-04-06T02:20:13.927Z,999.12
2019-04-06T02:21:13.907Z,999.06
2019-04-06T02:22:13.902Z,999.09
2019-04-06T02:23:13.891Z,999.09
2019-04-06T02:24:13.879Z,999.08
2019-04-06T02:25:13.868Z,999.10
2019-04-06T02:26:13.858Z,999.09
2019-04-06T02:27:13.971Z,999.06
2019-04-06T02:28:13.843Z,999.06
2019-04-06T02:29:13.828Z,999.07
2019-04-06T02:30:13.826Z,999.05
2019-04-06T02:31:13.820Z,999.06
2019-04-06T02:32:13.796Z,999.05
2019-04-06T02:33:14.665Z,999.04
2019-04-06T02:34:13.783Z,999.04
2019-04-06T02:35:13.775Z,999.04
2019-04-06T02:36:13.758Z,999.04
2019-04-06T02:37:13.752Z,999.03
2019-04-06T02:38:13.735Z,999.03
2019-04-06T02:39:13.724Z,999.07
2019-04-06T02:40:13.720Z,999.06
2019-04-06T02:41:13.704Z,999.09
2019-04-06T02:42:13.698Z,999.03
2019-04-06T02:43:13.690Z,999.02
2019-04-06T02:44:13.671Z,999.02
2019-04-06T02:45:13.669Z,999.02
2019-04-06T02:46:13.675Z,999.03
2019-04-06T02:47:13.648Z,999.06
2019-04-06T02:48:13.714Z,998.98
2019-04-06T02:49:13.722Z,998.99
2019-04-06T02:50:13.619Z,998.97
2019-04-06T02:51:13.623Z,998.98
2019-04-06T02:52:13.676Z,999.01
2019-04-06T02:53:13.610Z,998.97
2019-04-06T02:54:13.568Z,998.98
2019-04-06T02:55:13.567Z,998.97
2019-04-06T02:56:13.555Z,998.95
2019-04-06T02:57:13.546Z,998.94
2019-04-06T02:58:13.530Z,998.95
2019-04-06T02:59:13.518Z,998.93
2019-04-06T03:00:13.541Z,998.96
2019-04-06T03:01:13.509Z,998.96
2019-04-06T03:02:13.494Z,998.89
2019-04-06T03:03:13.545Z,998.89
2019-04-06T03:04:13.476Z,998.89
2019-04-06T03:05:13.462Z,998.91
2019-04-06T03:06:13.684Z,998.89
2019-04-06T03:07:13.444Z,998.91
2019-04-06T03:08:14.405Z,998.92
2019-04-06T03:09:13.422Z,998.91
2019-04-06T03:10:13.434Z,998.91
2019-04-06T03:11:13.400Z,998.88
2019-04-06T03:12:13.394Z,998.91
2019-04-06T03:13:13.384Z,998.91
2019-04-06T03:14:13.375Z,998.90
2019-04-06T03:15:13.419Z,998.89
2019-04-06T03:16:13.354Z,998.90
2019-04-06T03:17:13.339Z,998.92
2019-04-06T03:18:13.329Z,998.88
2019-04-06T03:19:13.329Z,998.91
2019-04-06T03:20:13.330Z,998.90
2019-04-06T03:21:13.307Z,998.95
2019-04-06T03:22:13.306Z,998.90
2019-04-06T03:23:13.280Z,998.92
2019-04-06T03:24:13.276Z,998.93
2019-04-06T03:25:13.255Z,998.97
2019-04-06T03:26:13.308Z,998.97
2019-04-06T03:27:13.239Z,999.02
2019-04-06T03:28:13.228Z,999.01
2019-04-06T03:29:13.264Z,998.95
2019-04-06T03:30:13.592Z,998.99
2019-04-06T03:31:13.485Z,998.99
2019-04-06T03:32:13.522Z,998.95
2019-04-06T03:33:13.442Z,998.98
2019-04-06T03:34:13.194Z,999.00
2019-04-06T03:35:13.235Z,998.96
2019-04-06T03:36:13.146Z,998.98
2019-04-06T03:37:13.138Z,998.96
2019-04-06T03:38:13.124Z,998.98
2019-04-06T03:39:13.119Z,998.97
2019-04-06T03:40:13.204Z,998.94
2019-04-06T03:41:13.225Z,998.96
2019-04-06T03:42:13.100Z,999.00
2019-04-06T03:43:13.074Z,998.95
2019-04-06T03:44:13.067Z,998.95
2019-04-06T03:45:13.060Z,998.99
2019-04-06T03:46:13.043Z,999.00
2019-04-06T03:47:13.041Z,998.99
2019-04-06T03:48:13.061Z,998.96
2019-04-06T03:49:13.011Z,999.01
2019-04-06T03:50:13.006Z,998.98
2019-04-06T03:51:13.011Z,998.96
2019-04-06T03:52:12.980Z,999.00
2019-04-06T03:53:12.974Z,998.96
2019-04-06T03:54:12.964Z,998.99
2019-04-06T03:55:12.978Z,999.00
2019-04-06T03:56:12.958Z,999.01
2019-04-06T03:57:15.915Z,998.97
2019-04-06T03:58:12.925Z,999.00
2019-04-06T03:59:13.029Z,998.98
2019-04-06T04:00:12.898Z,998.96
2019-04-06T04:01:13.050Z,998.94
2019-04-06T04:02:12.884Z,998.98
2019-04-06T04:03:12.870Z,998.97
2019-04-06T04:04:12.916Z,998.99
2019-04-06T04:05:12.959Z,998.97
2019-04-06T04:06:12.842Z,998.99
2019-04-06T04:07:12.893Z,999.04
2019-04-06T04:08:12.830Z,999.04
2019-04-06T04:09:12.845Z,999.04
2019-04-06T04:10:12.800Z,999.02
2019-04-06T04:11:12.814Z,999.03
2019-04-06T04:12:12.780Z,999.02
2019-04-06T04:13:12.770Z,999.02
2019-04-06T04:14:12.761Z,999.00
2019-04-06T04:15:12.791Z,999.03
2019-04-06T04:16:12.753Z,999.04
2019-04-06T04:17:12.935Z,999.01
2019-04-06T04:18:12.732Z,999.03
2019-04-06T04:19:12.709Z,999.05
2019-04-06T04:20:12.701Z,999.03
2019-04-06T04:21:12.707Z,999.06
2019-04-06T04:22:12.702Z,999.06
2019-04-06T04:23:12.804Z,999.04
2019-04-06T04:24:12.777Z,999.04
2019-04-06T04:25:12.646Z,999.02
2019-04-06T04:26:12.644Z,999.03
2019-04-06T04:27:12.632Z,999.05
2019-04-06T04:28:12.945Z,999.07
2019-04-06T04:29:12.609Z,999.04
2019-04-06T04:30:15.009Z,999.06
2019-04-06T04:31:12.592Z,999.05
2019-04-06T04:32:12.582Z,999.08
2019-04-06T04:33:12.574Z,999.05
2019-04-06T04:34:12.575Z,999.07
2019-04-06T04:35:12.544Z,999.02
2019-04-06T04:36:12.544Z,999.00
2019-04-06T04:37:12.530Z,999.09
2019-04-06T04:38:12.555Z,999.09
2019-04-06T04:39:12.564Z,999.12
2019-04-06T04:40:12.515Z,999.10
2019-04-06T04:41:12.487Z,999.10
2019-04-06T04:42:12.489Z,999.06
2019-04-06T04:43:12.478Z,999.04
2019-04-06T04:44:12.457Z,999.02
2019-04-06T04:45:12.442Z,999.03
2019-04-06T04:46:12.438Z,999.01
2019-04-06T04:47:12.630Z,998.97
2019-04-06T04:48:12.420Z,998.99
2019-04-06T04:49:12.417Z,999.01
2019-04-06T04:50:12.531Z,999.03
2019-04-06T04:51:12.388Z,999.00
2019-04-06T04:52:12.377Z,999.01
2019-04-06T04:53:12.429Z,999.02
2019-04-06T04:54:12.501Z,999.02
2019-04-06T04:55:12.350Z,998.97
2019-04-06T04:56:12.339Z,998.99
2019-04-06T04:57:12.329Z,999.02
2019-04-06T04:58:12.518Z,998.96
2019-04-06T04:59:12.307Z,998.89
2019-04-06T05:00:12.317Z,998.95
2019-04-06T05:01:12.301Z,998.87
2019-04-06T05:02:12.281Z,998.86
2019-04-06T05:03:12.270Z,998.87
2019-04-06T05:04:12.253Z,998.89
2019-04-06T05:05:12.252Z,998.92
2019-04-06T05:06:12.407Z,998.94
2019-04-06T05:07:12.252Z,998.98
2019-04-06T05:08:12.224Z,999.02
2019-04-06T05:09:12.215Z,999.11
2019-04-06T05:10:12.194Z,999.08
2019-04-06T05:11:12.189Z,999.10
2019-04-06T05:12:12.300Z,999.17
2019-04-06T05:13:12.167Z,999.14
2019-04-06T05:14:12.218Z,999.16
2019-04-06T05:15:12.180Z,999.19
2019-04-06T05:16:12.375Z,999.16
2019-04-06T05:17:12.125Z,999.19
2019-04-06T05:18:12.114Z,999.18
2019-04-06T05:19:12.266Z,999.18
2019-04-06T05:20:12.100Z,999.20
2019-04-06T05:21:12.092Z,999.21
2019-04-06T05:22:12.099Z,999.19
2019-04-06T05:23:12.067Z,999.19
2019-04-06T05:24:12.058Z,999.13
2019-04-06T05:25:12.349Z,999.10
2019-04-06T05:26:12.044Z,999.13
2019-04-06T05:27:12.032Z,999.13
2019-04-06T05:28:12.018Z,999.11
2019-04-06T05:29:12.013Z,999.13
2019-04-06T05:30:12.047Z,999.08
2019-04-06T05:31:11.984Z,999.05
2019-04-06T05:32:11.978Z,999.03
2019-04-06T05:33:11.965Z,999.09
2019-04-06T05:34:11.949Z,999.12
2019-04-06T05:35:11.950Z,999.15
2019-04-06T05:36:11.937Z,999.14
2019-04-06T05:37:11.942Z,999.17
2019-04-06T05:38:11.920Z,999.17
2019-04-06T05:39:11.907Z,999.19
2019-04-06T05:40:11.900Z,999.16
2019-04-06T05:41:12.054Z,999.16
2019-04-06T05:42:11.881Z,999.18
2019-04-06T05:43:11.860Z,999.23
2019-04-06T05:44:11.859Z,999.22
2019-04-06T05:45:11.847Z,999.22
2019-04-06T05:46:11.837Z,999.21
2019-04-06T05:47:11.823Z,999.28
2019-04-06T05:48:11.816Z,999.26
2019-04-06T05:49:11.901Z,999.29
2019-04-06T05:50:11.911Z,999.26
2019-04-06T05:51:11.784Z,999.23
2019-04-06T05:52:11.775Z,999.25
2019-04-06T05:53:11.761Z,999.27
2019-04-06T05:54:11.755Z,999.27
2019-04-06T05:55:11.757Z,999.24
2019-04-06T05:56:11.728Z,999.21
2019-04-06T05:57:11.720Z,999.26
2019-04-06T05:58:11.867Z,999.23
2019-04-06T05:59:11.799Z,999.23
2019-04-06T06:00:11.692Z,999.22
2019-04-06T06:01:11.784Z,999.25
2019-04-06T06:02:11.673Z,999.21
2019-04-06T06:03:11.769Z,999.22
2019-04-06T06:04:11.792Z,999.20
2019-04-06T06:05:11.643Z,999.19
2019-04-06T06:06:12.857Z,999.19
2019-04-06T06:07:11.624Z,999.21
2019-04-06T06:08:11.622Z,999.20
2019-04-06T06:09:11.605Z,999.18
2019-04-06T06:10:11.595Z,999.20
2019-04-06T06:11:11.783Z,999.19
2019-04-06T06:12:11.577Z,999.14
2019-04-06T06:13:11.567Z,999.19
2019-04-06T06:14:11.560Z,999.17
2019-04-06T06:15:11.569Z,999.22
2019-04-06T06:16:12.234Z,999.20
2019-04-06T06:17:11.529Z,999.24
2019-04-06T06:18:11.526Z,999.22
2019-04-06T06:19:11.509Z,999.21
2019-04-06T06:20:11.558Z,999.25
2019-04-06T06:21:11.485Z,999.23
2019-04-06T06:22:11.561Z,999.25
2019-04-06T06:23:11.470Z,999.26
2019-04-06T06:24:11.458Z,999.26
2019-04-06T06:25:11.468Z,999.26
2019-04-06T06:26:11.454Z,999.29
2019-04-06T06:27:11.435Z,999.24
2019-04-06T06:28:15.275Z,999.28
2019-04-06T06:29:11.447Z,999.25
2019-04-06T06:30:11.399Z,999.25
2019-04-06T06:31:11.393Z,999.26
2019-04-06T06:32:11.492Z,999.24
2019-04-06T06:33:11.388Z,999.25
2019-04-06T06:34:11.564Z,999.21
2019-04-06T06:35:11.378Z,999.24
2019-04-06T06:36:11.343Z,999.24
2019-04-06T06:37:11.375Z,999.22
2019-04-06T06:38:11.322Z,999.27
2019-04-06T06:39:11.315Z,999.24
2019-04-06T06:40:11.304Z,999.32
2019-04-06T06:41:11.294Z,999.32
2019-04-06T06:42:11.319Z,999.34
2019-04-06T06:43:11.288Z,999.29
2019-04-06T06:44:11.265Z,999.29
2019-04-06T06:45:11.256Z,999.35
2019-04-06T06:46:11.249Z,999.39
2019-04-06T06:47:11.238Z,999.39
2019-04-06T06:48:11.225Z,999.39
2019-04-06T06:49:11.221Z,999.43
2019-04-06T06:50:11.210Z,999.41
2019-04-06T06:51:11.193Z,999.41
2019-04-06T06:52:11.198Z,999.40
2019-04-06T06:53:11.282Z,999.41
2019-04-06T06:54:11.170Z,999.40
2019-04-06T06:55:11.171Z,999.42
2019-04-06T06:56:11.150Z,999.42
2019-04-06T06:57:11.146Z,999.40
2019-04-06T06:58:11.137Z,999.41
2019-04-06T06:59:11.218Z,999.40
2019-04-06T07:00:11.281Z,999.45
2019-04-06T07:01:11.114Z,999.45
2019-04-06T07:02:11.097Z,999.44
2019-04-06T07:03:11.093Z,999.41
2019-04-06T07:04:11.075Z,999.41
2019-04-06T07:05:11.059Z,999.42
2019-04-06T07:06:11.052Z,999.43
2019-04-06T07:07:11.047Z,999.43
2019-04-06T07:08:11.041Z,999.45
2019-04-06T07:09:11.033Z,999.41
2019-04-06T07:10:11.076Z,999.39
2019-04-06T07:11:11.222Z,999.42
2019-04-06T07:12:11.018Z,999.43
2019-04-06T07:13:10.988Z,999.47
2019-04-06T07:14:11.005Z,999.51
2019-04-06T07:15:10.975Z,999.49
2019-04-06T07:16:11.158Z,999.51
2019-04-06T07:17:10.961Z,999.50
2019-04-06T07:18:10.947Z,999.49
2019-04-06T07:19:10.933Z,999.49
2019-04-06T07:20:10.937Z,999.53
2019-04-06T07:21:10.921Z,999.49
2019-04-06T07:22:10.912Z,999.51
2019-04-06T07:23:11.100Z,999.55
2019-04-06T07:24:10.894Z,999.61
2019-04-06T07:25:10.889Z,999.57
2019-04-06T07:26:10.885Z,999.59
2019-04-06T07:27:11.065Z,999.61
2019-04-06T07:28:11.285Z,999.59
2019-04-06T07:29:10.854Z,999.57
2019-04-06T07:30:11.072Z,999.58
2019-04-06T07:31:10.837Z,999.56
2019-04-06T07:32:10.832Z,999.61
2019-04-06T07:33:11.067Z,999.62
2019-04-06T07:34:10.811Z,999.63
2019-04-06T07:35:10.824Z,999.63
2019-04-06T07:36:10.800Z,999.63
2019-04-06T07:37:11.114Z,999.67
2019-04-06T07:38:10.830Z,999.62
2019-04-06T07:39:10.768Z,999.65
2019-04-06T07:40:10.824Z,999.64
2019-04-06T07:41:10.752Z,999.62
2019-04-06T07:42:10.940Z,999.60
2019-04-06T07:43:10.736Z,999.64
2019-04-06T07:44:11.010Z,999.60
2019-04-06T07:45:10.723Z,999.60
2019-04-06T07:46:10.715Z,999.57
2019-04-06T07:47:10.697Z,999.60
2019-04-06T07:48:10.699Z,999.56
2019-04-06T07:49:10.693Z,999.59
2019-04-06T07:50:10.676Z,999.56
2019-04-06T07:51:10.662Z,999.60
2019-04-06T07:52:10.664Z,999.58
2019-04-06T07:53:10.821Z,999.60
2019-04-06T07:54:10.646Z,999.60
2019-04-06T07:55:10.631Z,999.64
2019-04-06T07:56:10.615Z,999.66
2019-04-06T07:57:10.613Z,999.67
2019-04-06T07:58:10.624Z,999.68
2019-04-06T07:59:10.589Z,999.65
2019-04-06T08:00:10.583Z,999.69
2019-04-06T08:01:10.584Z,999.69
2019-04-06T08:02:10.837Z,999.68
2019-04-06T08:03:10.560Z,999.69
2019-04-06T08:04:10.552Z,999.71
2019-04-06T08:05:10.550Z,999.70
2019-04-06T08:06:10.547Z,999.75
2019-04-06T08:07:10.524Z,999.70
2019-04-06T08:08:10.523Z,999.71
2019-04-06T08:09:10.510Z,999.68
2019-04-06T08:10:10.702Z,999.66
2019-04-06T08:11:10.491Z,999.69
2019-04-06T08:12:10.480Z,999.64
2019-04-06T08:13:10.481Z,999.62
2019-04-06T08:14:10.531Z,999.62
2019-04-06T08:15:10.487Z,999.65
2019-04-06T08:16:10.445Z,999.66
2019-04-06T08:17:10.445Z,999.63
2019-04-06T08:18:10.431Z,999.61
2019-04-06T08:19:10.427Z,999.62
2019-04-06T08:20:10.411Z,999.60
2019-04-06T08:21:10.428Z,999.60
2019-04-06T08:22:10.392Z,999.63
2019-04-06T08:23:10.389Z,999.62
2019-04-06T08:24:10.387Z,999.65
2019-04-06T08:25:10.395Z,999.62
2019-04-06T08:26:10.763Z,999.64
2019-04-06T08:27:10.357Z,999.64
2019-04-06T08:28:10.476Z,999.64
2019-04-06T08:29:10.337Z,999.63
2019-04-06T08:30:10.328Z,999.59
2019-04-06T08:31:10.329Z,999.59
2019-04-06T08:32:10.307Z,999.59
2019-04-06T08:33:10.300Z,999.56
2019-04-06T08:34:10.296Z,999.57
2019-04-06T08:35:10.280Z,999.57
2019-04-06T08:36:10.525Z,999.48
2019-04-06T08:37:10.302Z,999.52
2019-04-06T08:38:10.535Z,999.54
2019-04-06T08:39:10.400Z,999.51
2019-04-06T08:40:10.271Z,999.50
2019-04-06T08:41:10.238Z,999.55
2019-04-06T08:42:10.228Z,999.52
2019-04-06T08:43:10.252Z,999.54
2019-04-06T08:44:10.205Z,999.53
2019-04-06T08:45:10.212Z,999.50
2019-04-06T08:46:10.200Z,999.48
2019-04-06T08:47:10.185Z,999.51
2019-04-06T08:48:10.175Z,999.51
2019-04-06T08:49:10.182Z,999.48
2019-04-06T08:50:10.166Z,999.47
2019-04-06T08:51:10.171Z,999.51
2019-04-06T08:52:11.678Z,999.48
2019-04-06T08:53:10.139Z,999.53
2019-04-06T08:54:10.139Z,999.51
2019-04-06T08:55:10.290Z,999.52
2019-04-06T08:56:10.113Z,999.47
2019-04-06T08:57:10.111Z,999.53
2019-04-06T08:58:10.104Z,999.56
2019-04-06T08:59:12.218Z,999.55
2019-04-06T09:00:10.085Z,999.51
2019-04-06T09:01:10.090Z,999.51
2019-04-06T09:02:10.075Z,999.54
2019-04-06T09:03:10.069Z,999.54
2019-04-06T09:04:10.057Z,999.54
2019-04-06T09:05:10.301Z,999.56
2019-04-06T09:06:10.053Z,999.52
2019-04-06T09:07:10.040Z,999.55
2019-04-06T09:08:10.043Z,999.55
2019-04-06T09:09:10.035Z,999.52
2019-04-06T09:10:10.048Z,999.52
2019-04-06T09:11:10.010Z,999.52
2019-04-06T09:12:10.027Z,999.51
2019-04-06T09:13:10.005Z,999.55
2019-04-06T09:14:10.000Z,999.51
2019-04-06T09:15:10.077Z,999.51
2019-04-06T09:16:09.981Z,999.49
2019-04-06T09:17:09.981Z,999.52
2019-04-06T09:18:10.195Z,999.49
2019-04-06T09:19:09.968Z,999.48
2019-04-06T09:20:09.959Z,999.50
2019-04-06T09:21:09.954Z,999.44
2019-04-06T09:22:09.952Z,999.44
2019-04-06T09:23:09.939Z,999.48
2019-04-06T09:24:09.941Z,999.47
2019-04-06T09:25:10.223Z,999.44
2019-04-06T09:26:09.931Z,999.48
2019-04-06T09:27:09.925Z,999.48
2019-04-06T09:28:09.925Z,999.51
2019-04-06T09:29:10.048Z,999.49
2019-04-06T09:30:09.918Z,999.50
2019-04-06T09:31:09.907Z,999.52
2019-04-06T09:32:09.898Z,999.48
2019-04-06T09:33:09.904Z,999.49
2019-04-06T09:34:09.901Z,999.46
2019-04-06T09:35:09.892Z,999.43
2019-04-06T09:36:09.887Z,999.46
2019-04-06T09:37:09.988Z,999.47
2019-04-06T09:38:09.923Z,999.50
2019-04-06T09:39:09.880Z,999.46
2019-04-06T09:40:09.873Z,999.42
2019-04-06T09:41:10.597Z,999.40
2019-04-06T09:42:10.107Z,999.42
2019-04-06T09:43:09.865Z,999.39
2019-04-06T09:44:09.892Z,999.43
2019-04-06T09:45:09.860Z,999.38
2019-04-06T09:46:09.883Z,999.33
2019-04-06T09:47:09.859Z,999.34
2019-04-06T09:48:09.853Z,999.35
2019-04-06T09:49:09.856Z,999.31
2019-04-06T09:50:09.861Z,999.30
2019-04-06T09:51:09.851Z,999.33
2019-04-06T09:52:10.055Z,999.31
2019-04-06T09:53:09.855Z,999.36
2019-04-06T09:54:09.928Z,999.35
2019-04-06T09:55:09.840Z,999.39
2019-04-06T09:56:09.843Z,999.36
2019-04-06T09:57:09.835Z,999.36
2019-04-06T09:58:09.973Z,999.38
2019-04-06T09:59:09.846Z,999.36
2019-04-06T10:00:09.858Z,999.41
2019-04-06T10:01:09.849Z,999.38
2019-04-06T10:02:09.836Z,999.38
2019-04-06T10:03:09.915Z,999.37
2019-04-06T10:04:09.832Z,999.34
2019-04-06T10:05:09.837Z,999.31
2019-04-06T10:06:09.987Z,999.34
2019-04-06T10:07:09.828Z,999.32
2019-04-06T10:08:09.833Z,999.32
2019-04-06T10:09:09.822Z,999.33
2019-04-06T10:10:09.824Z,999.30
2019-04-06T10:11:09.815Z,999.30
2019-04-06T10:12:10.041Z,999.28
2019-04-06T10:13:09.930Z,999.23
2019-04-06T10:14:09.818Z,999.29
2019-04-06T10:15:09.815Z,999.26
2019-04-06T10:16:09.803Z,999.29
2019-04-06T10:17:09.813Z,999.30
2019-04-06T10:18:09.804Z,999.29
2019-04-06T10:19:09.840Z,999.34
2019-04-06T10:20:09.810Z,999.36
2019-04-06T10:21:09.810Z,999.34
2019-04-06T10:22:09.804Z,999.39
2019-04-06T10:23:09.801Z,999.35
2019-04-06T10:24:09.803Z,999.40
2019-04-06T10:25:11.299Z,999.37
2019-04-06T10:26:09.794Z,999.42
2019-04-06T10:27:09.797Z,999.39
2019-04-06T10:28:09.798Z,999.42
2019-04-06T10:29:10.125Z,999.35
2019-04-06T10:30:09.960Z,999.34
2019-04-06T10:31:09.787Z,999.31
2019-04-06T10:32:09.789Z,999.33
2019-04-06T10:33:09.785Z,999.33
2019-04-06T10:34:09.780Z,999.29
2019-04-06T10:35:09.782Z,999.30
2019-04-06T10:36:09.776Z,999.29
2019-04-06T10:37:10.017Z,999.26
2019-04-06T10:38:10.049Z,999.23
2019-04-06T10:39:09.987Z,999.22
2019-04-06T10:40:10.141Z,999.21
2019-04-06T10:41:09.969Z,999.23
2019-04-06T10:42:09.761Z,999.30
2019-04-06T10:43:09.757Z,999.27
2019-04-06T10:44:09.748Z,999.28
2019-04-06T10:45:09.749Z,999.30
2019-04-06T10:46:09.753Z,999.34
2019-04-06T10:47:09.750Z,999.32
2019-04-06T10:48:09.742Z,999.29
2019-04-06T10:49:09.744Z,999.36
2019-04-06T10:50:09.750Z,999.27
2019-04-06T10:51:09.743Z,999.27
2019-04-06T10:52:09.738Z,999.27
2019-04-06T10:53:09.733Z,999.30
2019-04-06T10:54:09.735Z,999.28
2019-04-06T10:55:09.754Z,999.26
2019-04-06T10:56:09.744Z,999.29
2019-04-06T10:57:09.852Z,999.31
2019-04-06T10:58:09.729Z,999.31
2019-04-06T10:59:09.729Z,999.32
2019-04-06T11:00:18.604Z,999.32
2019-04-06T11:02:10.877Z,999.26
2019-04-06T11:03:03.132Z,999.25
2019-04-06T11:05:04.375Z,999.36
2019-04-06T11:06:04.280Z,999.31
2019-04-06T11:07:50.065Z,999.32
2019-04-06T11:08:50.813Z,999.30
2019-04-06T11:09:50.138Z,999.28
2019-04-06T11:10:50.031Z,999.24
2019-04-06T11:11:50.305Z,999.23
2019-04-06T11:12:50.159Z,999.23
2019-04-06T11:13:50.030Z,999.24
2019-04-06T11:14:50.195Z,999.26
2019-04-06T11:15:50.031Z,999.22
2019-04-06T11:16:50.028Z,999.18
2019-04-06T11:17:50.620Z,999.20
2019-04-06T11:18:50.039Z,999.19
2019-04-06T11:19:50.023Z,999.22
2019-04-06T11:20:50.029Z,999.19
2019-04-06T11:21:50.019Z,999.17
2019-04-06T11:22:50.015Z,999.15
2019-04-06T11:23:50.014Z,999.13
2019-04-06T11:24:50.023Z,999.18
2019-04-06T11:25:50.264Z,999.22
2019-04-06T11:26:50.015Z,999.19
2019-04-06T11:27:50.009Z,999.18
2019-04-06T11:28:50.008Z,999.19
2019-04-06T11:29:50.092Z,999.20
2019-04-06T11:30:50.299Z,999.25
2019-04-06T11:31:49.991Z,999.24
2019-04-06T11:32:50.058Z,999.21
2019-04-06T11:33:50.182Z,999.24
2019-04-06T11:34:49.983Z,999.19
2019-04-06T11:35:49.982Z,999.20
2019-04-06T11:36:50.033Z,999.17
2019-04-06T11:37:50.099Z,999.18
2019-04-06T11:38:50.022Z,999.16
2019-04-06T11:39:49.982Z,999.14
2019-04-06T11:40:50.021Z,999.15
2019-04-06T11:41:49.969Z,999.13
2019-04-06T11:42:49.970Z,999.15
2019-04-06T11:43:49.980Z,999.16
2019-04-06T11:44:49.955Z,999.15
2019-04-06T11:45:49.953Z,999.11
2019-04-06T11:46:50.233Z,999.09
2019-04-06T11:47:49.970Z,999.15
2019-04-06T11:48:49.952Z,999.11
2019-04-06T11:49:49.944Z,999.10
2019-04-06T11:50:49.936Z,999.12
2019-04-06T11:51:50.268Z,999.05
2019-04-06T11:52:49.926Z,999.06
2019-04-06T11:53:49.990Z,999.06
2019-04-06T11:54:49.963Z,999.06
2019-04-06T11:55:49.922Z,999.06
2019-04-06T11:56:49.921Z,999.07
2019-04-06T11:57:49.912Z,999.08
2019-04-06T11:58:49.921Z,999.12
2019-04-06T11:59:49.900Z,999.08
2019-04-06T12:00:49.924Z,999.14
2019-04-06T12:01:49.905Z,999.06
2019-04-06T12:02:49.903Z,999.12
2019-04-06T12:03:49.915Z,999.06
2019-04-06T12:04:50.003Z,999.10
2019-04-06T12:05:50.169Z,999.07
2019-04-06T12:06:49.879Z,999.09
2019-04-06T12:07:49.903Z,999.13
2019-04-06T12:08:49.905Z,999.15
2019-04-06T12:09:50.419Z,999.13
2019-04-06T12:10:49.894Z,999.12
2019-04-06T12:11:49.870Z,999.08
2019-04-06T12:12:50.180Z,999.10
2019-04-06T12:13:49.930Z,999.06
2019-04-06T12:14:49.869Z,999.09
2019-04-06T12:15:49.989Z,999.09
2019-04-06T12:16:49.863Z,999.06
2019-04-06T12:17:49.874Z,999.09
2019-04-06T12:18:49.857Z,999.10
2019-04-06T12:19:49.868Z,999.01
2019-04-06T12:20:49.880Z,999.07
2019-04-06T12:21:49.854Z,999.06
2019-04-06T12:22:50.826Z,999.11
2019-04-06T12:23:49.846Z,999.05
2019-04-06T12:24:50.200Z,999.05
2019-04-06T12:25:49.838Z,999.05
2019-04-06T12:26:49.847Z,999.03
2019-04-06T12:27:49.861Z,999.03
2019-04-06T12:28:49.837Z,999.04
2019-04-06T12:29:49.840Z,999.05
2019-04-06T12:30:49.836Z,999.04